Time;durP1;ratioP1;P1;durP2;ratioP2;P2;SDS_P1;SDS_P2;PMS_P1;PMS_P2;Temp;Humidity;BMP_temperature;BMP_pressure;BME280_temperature;BME280_humidity;BME280_pressure;Samples;Min_cycle;Max_cycle;Signal;HPM_P1;HPM_P2
2023/04/02 00:01:46;;;;;;;2.97;1.97;;;;;;;8.72;68.22;95427.00;4956689;28;20201;-66
2023/04/02 00:04:14;;;;;;;2.90;1.80;;;;;;;8.69;68.56;95438.47;4967305;28;20520;-66
2023/04/02 00:06:44;;;;;;;2.63;2.00;;;;;;;8.76;67.72;95435.53;4967313;28;20514;-66
2023/04/02 00:09:12;;;;;;;3.43;1.90;;;;;;;8.67;68.29;95440.31;4967656;28;20443;-67
2023/04/02 00:11:43;;;;;;;3.93;1.97;;;;;;;8.73;68.78;95438.31;4967850;28;20461;-66
2023/04/02 00:14:30;;;;;;;2.80;1.90;;;;;;;8.65;68.86;95438.72;4967588;28;20907;-66
2023/04/02 00:16:57;;;;;;;2.50;1.80;;;;;;;8.73;68.41;95438.31;4966501;28;20416;-67
2023/04/02 00:19:51;;;;;;;3.93;2.50;;;;;;;8.73;67.56;95444.38;4965423;28;20468;-66
2023/04/02 00:22:20;;;;;;;3.47;1.83;;;;;;;8.68;68.03;95447.22;4964535;28;20796;-66
2023/04/02 00:24:51;;;;;;;3.53;1.87;;;;;;;8.71;67.73;95442.75;4963358;28;20527;-66
2023/04/02 00:27:17;;;;;;;7.43;2.30;;;;;;;8.72;67.72;95445.31;4957894;28;20485;-67
2023/04/02 00:29:56;;;;;;;6.00;2.07;;;;;;;8.73;67.33;95446.16;4948245;28;20497;-67
2023/04/02 00:32:32;;;;;;;2.47;1.63;;;;;;;8.67;67.85;95445.53;4966439;28;20205;-67
2023/04/02 00:34:58;;;;;;;1.97;1.77;;;;;;;8.67;68.01;95445.53;4967432;28;20401;-67
2023/04/02 00:37:27;;;;;;;3.97;2.50;;;;;;;8.67;67.37;95442.94;4966972;28;20425;-67
2023/04/02 00:40:01;;;;;;;4.10;1.83;;;;;;;8.58;68.66;95438.19;4970063;28;20413;-68
2023/04/02 00:42:30;;;;;;;2.80;1.73;;;;;;;8.79;67.06;95445.84;4970781;28;21127;-66
2023/04/02 00:44:57;;;;;;;5.87;2.07;;;;;;;8.68;67.92;95444.59;4970754;28;20409;-67
2023/04/02 00:47:32;;;;;;;4.67;2.30;;;;;;;8.84;66.88;95449.06;4970515;28;20431;-67
2023/04/02 00:50:00;;;;;;;5.63;2.60;;;;;;;8.73;67.09;95440.91;4970626;28;20503;-67
2023/04/02 00:52:30;;;;;;;9.73;2.23;;;;;;;8.72;67.40;95442.69;4970599;28;20551;-67
2023/04/02 00:55:05;;;;;;;2.07;1.80;;;;;;;8.74;67.27;95434.75;4970336;28;20435;-67
2023/04/02 00:57:32;;;;;;;2.00;1.80;;;;;;;8.65;67.42;95442.16;4970244;28;20467;-66
2023/04/02 01:00:11;;;;;;;2.47;2.27;;;;;;;8.52;68.05;95441.09;4970159;28;20483;-66
2023/04/02 01:02:39;;;;;;;5.30;1.60;;;;;;;8.41;68.06;95451.25;4970389;28;20412;-66
2023/04/02 01:05:14;;;;;;;2.53;1.53;;;;;;;8.31;68.05;95448.22;4970106;28;20417;-65
2023/04/02 01:08:03;;;;;;;3.47;1.60;;;;;;;8.26;68.21;95445.84;4969472;28;20436;-67
2023/04/02 01:10:50;;;;;;;1.87;1.60;;;;;;;8.49;67.25;95454.31;4969994;28;20824;-67
2023/04/02 01:13:38;;;;;;;2.97;1.57;;;;;;;8.55;67.35;95459.25;4969887;28;20432;-65
2023/04/02 01:16:35;;;;;;;2.17;1.43;;;;;;;8.50;67.93;95449.94;4969381;28;20409;-66
2023/04/02 01:19:19;;;;;;;3.33;1.40;;;;;;;8.37;68.36;95457.53;4970030;28;20429;-66
2023/04/02 01:21:52;;;;;;;5.67;1.53;;;;;;;8.54;67.17;95449.72;4969443;28;20432;-66
2023/04/02 01:24:19;;;;;;;2.50;2.10;;;;;;;8.37;68.15;95457.53;4964966;28;20441;-67
2023/04/02 01:26:58;;;;;;;2.30;1.33;;;;;;;8.46;67.07;95457.94;4967909;28;20580;-68
2023/04/02 01:29:34;;;;;;;9.50;2.60;;;;;;;8.40;67.37;95460.03;4964464;28;20468;-67
2023/04/02 01:32:21;;;;;;;2.00;1.30;;;;;;;8.40;67.65;95458.25;4958611;28;20449;-68
2023/04/02 01:34:49;;;;;;;2.20;2.00;;;;;;;8.38;67.94;95456.59;4953035;28;20780;-67
2023/04/02 01:37:48;;;;;;;2.10;1.60;;;;;;;8.20;68.74;95461.00;4969166;28;20433;-67
2023/04/02 01:40:36;;;;;;;1.97;1.63;;;;;;;8.16;68.16;95455.06;4969359;28;20413;-67
2023/04/02 01:43:23;;;;;;;3.53;1.63;;;;;;;8.17;68.39;95459.38;4969431;28;20448;-67
2023/04/02 01:45:49;;;;;;;2.70;1.50;;;;;;;8.10;68.09;95468.41;4969157;28;20420;-68
2023/04/02 01:48:23;;;;;;;1.87;1.70;;;;;;;8.14;68.32;95459.50;4983938;28;20947;-68
2023/04/02 01:50:51;;;;;;;2.27;1.80;;;;;;;8.16;67.91;95468.13;4968388;28;20551;-68
2023/04/02 01:53:19;;;;;;;2.03;1.80;;;;;;;8.04;68.62;95466.97;4969229;28;20418;-67
2023/04/02 01:55:47;;;;;;;5.30;2.50;;;;;;;7.96;69.17;95479.56;4969264;28;20795;-67
2023/04/02 01:58:16;;;;;;;2.87;1.50;;;;;;;8.01;68.19;95477.56;4968818;28;20527;-68
2023/04/02 02:01:08;;;;;;;6.47;1.87;;;;;;;7.91;68.20;95471.09;4969134;28;20444;-67
2023/04/02 02:03:34;;;;;;;2.13;1.80;;;;;;;7.96;69.04;95468.25;4969027;28;20456;-67
2023/04/02 02:06:01;;;;;;;2.33;1.40;;;;;;;8.00;68.10;95472.41;4968620;28;20413;-67
2023/04/02 02:08:37;;;;;;;1.70;1.43;;;;;;;7.88;68.42;95473.84;4968940;28;20201;-70
2023/04/02 02:11:04;;;;;;;4.40;3.00;;;;;;;7.86;68.78;95473.06;4969132;28;20460;-66
2023/04/02 02:13:31;;;;;;;2.10;1.67;;;;;;;7.73;69.69;95485.03;4968945;28;20424;-66
2023/04/02 02:16:02;;;;;;;1.87;1.40;;;;;;;7.91;69.07;95478.91;4968533;28;20813;-66
2023/04/02 02:18:28;;;;;;;2.50;1.50;;;;;;;7.93;68.84;95484.06;4968665;28;20568;-67
2023/04/02 02:20:56;;;;;;;3.10;1.90;;;;;;;7.92;69.03;95493.69;4969470;28;20500;-66
2023/04/02 02:23:22;;;;;;;2.50;1.87;;;;;;;7.92;68.69;95493.69;4969147;28;20169;-66
2023/04/02 02:25:47;;;;;;;2.87;1.40;;;;;;;7.89;68.38;95495.59;4968979;28;20413;-66
2023/04/02 02:28:20;;;;;;;2.67;1.60;;;;;;;7.81;68.14;95501.19;4968575;28;20244;-66
2023/04/02 02:30:55;;;;;;;1.77;1.60;;;;;;;7.77;69.08;95500.50;4967561;28;20288;-66
2023/04/02 02:33:24;;;;;;;3.90;1.93;;;;;;;7.79;68.99;95511.69;4968381;28;20515;-67
2023/04/02 02:35:52;;;;;;;4.30;2.13;;;;;;;7.90;68.29;95505.13;4968221;28;20417;-67
2023/04/02 02:38:32;;;;;;;6.20;1.70;;;;;;;7.82;68.87;95508.13;4968421;28;20476;-67
2023/04/02 02:41:06;;;;;;;4.50;2.40;;;;;;;7.69;69.17;95504.38;4968206;28;20471;-67
2023/04/02 02:43:33;;;;;;;4.90;2.30;;;;;;;7.70;69.26;95511.28;4968458;28;20421;-66
2023/04/02 02:46:03;;;;;;;3.10;2.10;;;;;;;7.69;69.31;95510.44;4966735;28;20425;-66
2023/04/02 02:48:36;;;;;;;2.83;1.93;;;;;;;7.81;69.35;95509.03;4968245;28;20516;-67
2023/04/02 02:51:08;;;;;;;3.40;2.07;;;;;;;7.82;69.20;95514.19;4968408;28;20534;-65
2023/04/02 02:53:45;;;;;;;2.30;1.70;;;;;;;7.84;68.66;95512.34;4968397;28;20409;-68
2023/04/02 02:56:11;;;;;;;2.30;2.00;;;;;;;7.88;68.86;95512.19;4968155;28;20471;-67
2023/04/02 02:58:37;;;;;;;2.73;2.20;;;;;;;7.85;69.19;95514.03;4968179;28;20452;-67
2023/04/02 03:01:03;;;;;;;3.13;1.93;;;;;;;7.90;68.59;95516.41;4967860;28;20413;-67
2023/04/02 03:03:32;;;;;;;2.33;1.90;;;;;;;7.83;68.82;95522.84;4968139;28;20761;-67
2023/04/02 03:06:08;;;;;;;2.53;1.90;;;;;;;7.77;69.02;95521.41;4967881;28;20196;-67
2023/04/02 03:08:39;;;;;;;3.77;2.30;;;;;;;7.91;69.10;95533.78;4968011;28;20852;-67
2023/04/02 03:11:31;;;;;;;2.50;2.30;;;;;;;7.82;69.50;95535.06;4964473;28;20467;-67
2023/04/02 03:14:06;;;;;;;2.30;2.10;;;;;;;7.98;69.09;95539.56;4967718;28;20433;-66
2023/04/02 03:16:59;;;;;;;3.33;2.13;;;;;;;7.92;69.13;95543.31;4966568;28;20483;-67
2023/04/02 03:19:37;;;;;;;2.53;2.30;;;;;;;7.99;68.59;95547.34;4965385;28;20516;-67
2023/04/02 03:22:14;;;;;;;4.17;2.50;;;;;;;8.00;69.24;95542.94;4968637;28;20408;-67
2023/04/02 03:25:32;;;;;;;2.73;2.50;;;;;;;8.01;68.90;95544.66;4967893;28;20413;-67
2023/04/02 03:28:05;;;;;;;3.77;2.60;;;;;;;7.90;68.94;95545.16;4964727;28;20924;-67
2023/04/02 03:30:37;;;;;;;4.93;2.23;;;;;;;7.86;69.39;95546.22;4952370;28;20565;-66
2023/04/02 03:33:12;;;;;;;3.70;2.63;;;;;;;7.89;69.43;95545.22;4967670;28;20443;-67
2023/04/02 03:36:11;;;;;;;5.70;2.70;;;;;;;7.77;69.69;95544.91;4966142;28;20431;-67
2023/04/02 03:38:45;;;;;;;4.90;2.57;;;;;;;7.85;69.93;95554.97;4966821;28;20477;-66
2023/04/02 03:41:15;;;;;;;4.50;3.00;;;;;;;7.80;69.89;95549.13;4965763;28;21129;-67
2023/04/02 03:43:57;;;;;;;4.43;2.87;;;;;;;7.81;69.46;95548.19;4967633;28;20500;-66
2023/04/02 03:46:41;;;;;;;2.97;2.53;;;;;;;7.75;69.58;95557.19;4955768;28;20807;-66
2023/04/02 03:49:40;;;;;;;3.80;3.50;;;;;;;7.79;69.23;95553.47;4967449;28;20559;-66
2023/04/02 03:52:10;;;;;;;4.30;2.83;;;;;;;7.66;69.69;95568.03;4965878;28;20456;-66
2023/04/02 03:54:36;;;;;;;4.63;2.77;;;;;;;7.31;71.44;95564.41;4967586;28;20902;-66
2023/04/02 03:57:02;;;;;;;3.60;3.30;;;;;;;7.60;70.49;95581.38;4958974;28;20436;-65
2023/04/02 03:59:43;;;;;;;6.10;4.60;;;;;;;7.57;70.39;95574.53;4966921;28;20745;-66
2023/04/02 04:02:23;;;;;;;8.00;3.50;;;;;;;7.68;70.01;95586.22;4967366;28;20709;-66
2023/04/02 04:04:49;;;;;;;2.90;2.60;;;;;;;7.73;68.85;95587.72;4967216;28;20471;-67
2023/04/02 04:07:26;;;;;;;5.10;3.77;;;;;;;7.59;69.37;95587.50;4966975;28;20413;-66
2023/04/02 04:09:53;;;;;;;3.77;3.47;;;;;;;7.62;70.15;95589.97;4967313;28;20467;-66
2023/04/02 04:12:42;;;;;;;4.23;3.37;;;;;;;7.70;68.75;95589.63;4964988;28;20532;-66
2023/04/02 04:15:14;;;;;;;4.03;3.63;;;;;;;7.68;69.36;95594.06;4967920;28;20417;-66
2023/04/02 04:17:50;;;;;;;3.93;2.87;;;;;;;7.75;69.21;95595.50;4968507;28;20474;-66
2023/04/02 04:20:22;;;;;;;5.20;3.00;;;;;;;7.67;69.18;95592.38;4968264;28;20413;-66
2023/04/02 04:22:54;;;;;;;3.47;3.17;;;;;;;7.69;69.18;95601.84;4968189;28;20416;-66
2023/04/02 04:25:28;;;;;;;6.03;3.07;;;;;;;7.60;69.71;95600.47;4968105;28;20401;-66
2023/04/02 04:28:15;;;;;;;8.23;3.40;;;;;;;7.62;68.64;95601.25;4967859;28;20417;-66
2023/04/02 04:30:46;;;;;;;5.33;2.73;;;;;;;7.66;68.94;95603.75;4967907;28;20432;-66
2023/04/02 04:33:21;;;;;;;7.00;3.60;;;;;;;7.59;68.83;95611.00;4967964;28;20500;-66
2023/04/02 04:35:58;;;;;;;7.47;3.67;;;;;;;7.54;69.10;95606.00;4967675;28;20443;-66
2023/04/02 04:38:27;;;;;;;9.77;4.97;;;;;;;7.62;69.16;95610.88;4967490;28;20514;-66
2023/04/02 04:41:01;;;;;;;3.93;3.47;;;;;;;7.47;69.29;95619.41;4967753;28;20544;-66
2023/04/02 04:44:05;;;;;;;3.80;3.10;;;;;;;7.58;69.45;95619.75;4967688;28;20408;-66
2023/04/02 04:46:43;;;;;;;14.63;4.13;;;;;;;7.36;69.77;95631.13;4964564;28;20438;-65
2023/04/02 04:49:19;;;;;;;6.87;3.37;;;;;;;7.41;69.01;95634.38;4964924;28;20523;-67
2023/04/02 04:51:56;;;;;;;4.93;3.23;;;;;;;7.34;69.24;95635.56;4964889;28;20988;-68
2023/04/02 04:54:25;;;;;;;3.57;3.10;;;;;;;7.48;69.22;95644.56;4964883;28;20417;-65
2023/04/02 04:56:58;;;;;;;3.43;2.60;;;;;;;7.45;69.46;95642.09;4964358;28;20420;-66
2023/04/02 04:59:31;;;;;;;5.30;3.23;;;;;;;7.52;69.33;95643.53;4963900;28;20443;-66
2023/04/02 05:02:06;;;;;;;6.83;3.50;;;;;;;7.47;69.27;95642.91;4964101;28;20440;-69
2023/04/02 05:04:37;;;;;;;6.70;3.37;;;;;;;7.37;69.64;95648.50;4964840;28;20927;-68
2023/04/02 05:07:14;;;;;;;4.43;3.20;;;;;;;7.56;69.10;95659.00;4964216;28;20417;-66
2023/04/02 05:09:56;;;;;;;5.43;3.57;;;;;;;7.57;68.74;95659.84;4964846;28;20874;-67
2023/04/02 05:12:27;;;;;;;5.00;3.53;;;;;;;7.49;68.71;95659.31;4964865;28;21057;-66
2023/04/02 05:14:59;;;;;;;3.93;3.23;;;;;;;7.55;68.82;95664.28;4964608;28;20424;-67
2023/04/02 05:17:31;;;;;;;4.00;3.40;;;;;;;7.44;69.36;95664.75;4955262;28;20442;-66
2023/04/02 05:20:15;;;;;;;4.60;3.20;;;;;;;7.49;69.07;95664.53;4948414;28;20426;-66
2023/04/02 05:22:53;;;;;;;4.10;3.37;;;;;;;7.50;69.39;95668.84;4948365;28;20512;-68
2023/04/02 05:25:24;;;;;;;3.03;2.73;;;;;;;7.41;69.27;95676.16;4948154;28;20505;-65
2023/04/02 05:28:16;;;;;;;5.20;3.40;;;;;;;7.50;69.04;95674.91;4947851;28;20422;-66
2023/04/02 05:31:06;;;;;;;3.90;3.60;;;;;;;7.61;68.60;95680.53;4953167;28;20432;-68
2023/04/02 05:33:36;;;;;;;3.07;2.77;;;;;;;7.63;68.55;95678.69;4967417;28;20483;-70
2023/04/02 05:36:04;;;;;;;4.53;3.60;;;;;;;7.64;69.08;95680.38;4966495;28;20484;-67
2023/04/02 05:38:34;;;;;;;6.17;3.37;;;;;;;7.61;68.68;95698.81;4966820;28;20460;-67
2023/04/02 05:41:01;;;;;;;8.13;2.90;;;;;;;7.67;68.61;95682.00;4966929;28;20416;-68
2023/04/02 05:43:30;;;;;;;12.40;4.00;;;;;;;7.78;68.28;95692.84;4966687;28;20444;-66
2023/04/02 05:46:00;;;;;;;5.23;3.00;;;;;;;7.84;68.48;95687.34;4966553;28;20417;-66
2023/04/02 05:48:32;;;;;;;3.70;3.40;;;;;;;7.87;68.22;95691.59;4966777;28;20423;-67
2023/04/02 05:50:58;;;;;;;10.03;4.50;;;;;;;7.88;68.36;95701.13;4966942;28;20785;-66
2023/04/02 05:53:25;;;;;;;11.20;3.73;;;;;;;7.93;68.67;95706.13;4966840;28;20907;-67
2023/04/02 05:56:02;;;;;;;7.00;3.53;;;;;;;7.97;68.13;95705.94;4964928;28;20461;-67
2023/04/02 05:58:38;;;;;;;5.40;3.40;;;;;;;7.86;68.49;95710.78;4967012;28;21029;-67
2023/04/02 06:01:07;;;;;;;6.07;3.40;;;;;;;7.92;68.85;95710.53;4966376;28;20475;-66
2023/04/02 06:03:53;;;;;;;6.20;3.13;;;;;;;8.07;68.19;95717.66;4966140;28;20405;-67
2023/04/02 06:06:43;;;;;;;3.73;3.40;;;;;;;8.11;67.63;95718.38;4965758;28;20417;-67
2023/04/02 06:09:18;;;;;;;3.30;3.03;;;;;;;8.01;68.13;95719.72;4966024;28;20523;-67
2023/04/02 06:11:48;;;;;;;3.20;2.90;;;;;;;8.01;68.76;95724.94;4968249;28;20471;-67
2023/04/02 06:14:15;;;;;;;6.33;3.33;;;;;;;8.06;67.88;95720.34;4966234;28;20410;-67
2023/04/02 06:16:44;;;;;;;3.80;3.20;;;;;;;8.06;68.90;95730.81;4967189;28;20437;-67
2023/04/02 06:19:19;;;;;;;3.87;3.50;;;;;;;8.13;68.04;95727.00;4967780;28;20452;-65
2023/04/02 06:21:48;;;;;;;5.87;4.07;;;;;;;8.09;68.17;95741.13;4968630;28;20408;-65
2023/04/02 06:24:18;;;;;;;9.40;3.90;;;;;;;8.11;68.83;95739.28;4969103;28;20410;-66
2023/04/02 06:26:50;;;;;;;7.40;3.90;;;;;;;8.11;68.03;95741.91;4968594;28;20461;-66
2023/04/02 06:29:32;;;;;;;5.90;4.20;;;;;;;8.10;68.71;95737.56;4969256;28;20425;-66
2023/04/02 06:32:01;;;;;;;6.90;3.70;;;;;;;8.28;67.89;95735.91;4968795;28;20543;-66
2023/04/02 06:34:29;;;;;;;7.67;4.00;;;;;;;8.24;68.49;95747.41;4969326;28;20523;-66
2023/04/02 06:37:26;;;;;;;4.87;3.70;;;;;;;8.26;68.04;95753.41;4968116;28;20440;-66
2023/04/02 06:39:52;;;;;;;4.63;4.20;;;;;;;8.25;67.53;95757.81;4949445;28;20406;-66
2023/04/02 06:42:26;;;;;;;5.47;4.70;;;;;;;8.36;67.78;95756.47;4949698;28;20422;-66
2023/04/02 06:44:51;;;;;;;6.43;4.60;;;;;;;8.37;67.73;95763.41;4949712;28;20404;-66
2023/04/02 06:47:34;;;;;;;3.87;3.57;;;;;;;8.46;68.18;95760.41;4949086;28;20448;-66
2023/04/02 06:50:13;;;;;;;4.90;3.70;;;;;;;8.47;67.51;95777.78;4949542;28;20651;-66
2023/04/02 06:52:45;;;;;;;5.70;4.77;;;;;;;8.60;67.94;95778.09;4949358;28;20812;-66
2023/04/02 06:55:19;;;;;;;3.83;3.53;;;;;;;8.61;67.16;95777.16;4949859;28;20978;-66
2023/04/02 06:57:45;;;;;;;4.33;3.77;;;;;;;8.71;67.79;95780.19;4948996;28;20453;-66
2023/04/02 07:00:29;;;;;;;5.30;4.40;;;;;;;8.75;66.85;95786.97;4949344;28;20410;-66
2023/04/02 07:02:56;;;;;;;4.13;3.80;;;;;;;8.96;67.18;95782.50;4949272;28;20840;-66
2023/04/02 07:05:21;;;;;;;4.03;3.73;;;;;;;8.84;67.39;95797.03;4947844;28;20421;-66
2023/04/02 07:07:46;;;;;;;4.20;3.80;;;;;;;8.96;66.56;95791.22;4949050;28;20436;-66
2023/04/02 07:10:12;;;;;;;6.30;4.40;;;;;;;9.02;66.40;95784.81;4949293;28;20181;-66
2023/04/02 07:12:37;;;;;;;4.13;3.50;;;;;;;9.03;66.39;95792.59;4948920;28;20269;-66
2023/04/02 07:15:03;;;;;;;5.80;4.00;;;;;;;8.95;66.76;95793.88;4959586;28;20177;-66
2023/04/02 07:17:29;;;;;;;8.30;5.77;;;;;;;9.00;66.85;95800.63;4968030;28;20909;-66
2023/04/02 07:19:54;;;;;;;4.33;3.70;;;;;;;9.00;66.72;95804.97;4968083;28;20200;-66
2023/04/02 07:22:21;;;;;;;10.17;5.33;;;;;;;8.97;66.28;95798.13;4966218;28;20174;-67
2023/04/02 07:24:46;;;;;;;6.30;3.60;;;;;;;9.01;66.34;95804.06;4960799;28;20213;-67
2023/04/02 07:27:13;;;;;;;6.80;4.10;;;;;;;9.04;66.01;95802.16;4966024;28;21237;-67
2023/04/02 07:29:41;;;;;;;7.03;3.90;;;;;;;9.03;66.20;95800.47;4968092;28;20275;-66
2023/04/02 07:32:11;;;;;;;4.37;3.97;;;;;;;9.22;65.50;95810.91;4967783;28;21083;-66
2023/04/02 07:34:38;;;;;;;4.40;4.00;;;;;;;9.14;65.97;95809.56;4967740;28;20822;-67
2023/04/02 07:37:04;;;;;;;5.03;4.37;;;;;;;9.18;65.45;95809.34;4962278;28;20428;-66
2023/04/02 07:39:30;;;;;;;7.20;4.47;;;;;;;9.17;65.51;95809.44;4965935;28;20775;-67
2023/04/02 07:41:57;;;;;;;8.87;5.17;;;;;;;9.15;65.49;95806.88;4966422;28;20467;-66
2023/04/02 07:44:23;;;;;;;9.40;3.83;;;;;;;9.24;65.62;95813.47;4966412;28;20201;-66
2023/04/02 07:46:49;;;;;;;9.33;4.20;;;;;;;9.34;65.37;95817.31;4966123;28;20808;-66
2023/04/02 07:49:14;;;;;;;4.30;3.90;;;;;;;9.35;65.17;95819.00;4964735;28;20197;-67
2023/04/02 07:51:40;;;;;;;3.60;3.30;;;;;;;9.40;65.22;95822.28;4968981;28;20217;-66
2023/04/02 07:54:08;;;;;;;4.57;3.73;;;;;;;9.44;65.42;95821.19;4969362;28;20606;-67
2023/04/02 07:56:35;;;;;;;5.00;3.63;;;;;;;9.41;65.30;95820.50;4969072;28;20730;-67
2023/04/02 07:59:01;;;;;;;6.60;4.03;;;;;;;9.38;65.28;95828.47;4967903;28;20817;-67
2023/04/02 08:01:28;;;;;;;4.50;3.53;;;;;;;9.31;65.41;95834.03;4970403;28;20437;-67
2023/04/02 08:03:55;;;;;;;8.90;4.20;;;;;;;9.40;65.25;95826.63;4958567;28;20233;-67
2023/04/02 08:06:22;;;;;;;5.50;4.03;;;;;;;9.46;64.87;95839.44;4959870;28;20523;-67
2023/04/02 08:08:47;;;;;;;14.40;5.67;;;;;;;9.49;64.30;95836.66;4969482;28;20471;-67
2023/04/02 08:11:13;;;;;;;7.10;4.20;;;;;;;9.60;64.19;95838.78;4970004;28;20464;-67
2023/04/02 08:13:38;;;;;;;5.90;3.10;;;;;;;9.65;64.08;95839.41;4959019;28;20261;-67
2023/04/02 08:16:05;;;;;;;3.73;3.33;;;;;;;9.67;64.51;95842.78;4959563;28;20639;-67
2023/04/02 08:18:31;;;;;;;5.03;3.63;;;;;;;9.80;63.82;95846.47;4969733;28;20356;-67
2023/04/02 08:20:57;;;;;;;3.57;3.27;;;;;;;9.84;63.43;95845.41;4964681;28;20973;-66
2023/04/02 08:23:24;;;;;;;4.87;3.50;;;;;;;9.94;63.46;95846.66;4967724;28;20177;-66
2023/04/02 08:25:50;;;;;;;7.03;3.90;;;;;;;9.94;63.15;95853.66;4967570;28;20500;-67
2023/04/02 08:28:16;;;;;;;3.30;3.00;;;;;;;10.05;63.53;95858.38;4968512;28;20451;-67
2023/04/02 08:30:42;;;;;;;4.93;3.13;;;;;;;10.13;62.85;95864.94;4968909;28;20542;-68
2023/04/02 08:33:07;;;;;;;21.00;4.80;;;;;;;10.24;62.43;95867.00;4969740;28;20181;-65
2023/04/02 08:35:33;;;;;;;7.33;4.47;;;;;;;10.23;62.40;95864.44;4967053;28;20459;-65
2023/04/02 08:37:58;;;;;;;12.07;3.87;;;;;;;10.36;62.48;95865.56;4983558;28;20205;-66
2023/04/02 08:40:31;;;;;;;4.13;3.73;;;;;;;10.51;61.75;95870.03;4969312;28;20307;-66
2023/04/02 08:43:21;;;;;;;7.47;3.97;;;;;;;10.37;62.44;95872.50;4960990;28;20248;-65
2023/04/02 08:45:54;;;;;;;3.23;2.93;;;;;;;10.52;61.71;95869.09;4965013;28;20432;-68
2023/04/02 08:48:20;;;;;;;4.77;3.87;;;;;;;10.65;61.15;95866.66;4966278;28;20468;-65
2023/04/02 08:50:46;;;;;;;3.23;2.93;;;;;;;10.82;60.83;95871.03;4961524;28;20485;-66
2023/04/02 08:53:18;;;;;;;3.30;2.97;;;;;;;10.92;60.15;95872.22;4964404;28;20548;-67
2023/04/02 08:56:04;;;;;;;3.43;3.13;;;;;;;10.94;60.29;95865.13;4960732;28;20593;-67
2023/04/02 08:58:47;;;;;;;5.50;3.23;;;;;;;11.12;59.40;95878.16;4961159;28;20994;-66
2023/04/02 09:01:33;;;;;;;5.53;3.70;;;;;;;11.18;59.27;95876.06;4969155;28;20455;-66
2023/04/02 09:04:02;;;;;;;6.83;3.00;;;;;;;11.25;59.32;95867.84;4969661;28;21042;-66
2023/04/02 09:06:28;;;;;;;4.40;3.27;;;;;;;11.35;58.89;95880.38;4968409;28;20449;-68
2023/04/02 09:08:55;;;;;;;4.33;3.27;;;;;;;11.56;58.04;95883.59;4967394;28;20457;-67
2023/04/02 09:11:40;;;;;;;7.30;3.30;;;;;;;11.47;57.93;95883.25;4958971;28;20817;-66
2023/04/02 09:14:16;;;;;;;12.73;4.00;;;;;;;11.61;57.67;95889.44;4964561;28;20541;-67
2023/04/02 09:16:55;;;;;;;7.73;3.30;;;;;;;11.77;57.08;95889.44;4965279;28;20439;-68
2023/04/02 09:19:30;;;;;;;12.23;4.60;;;;;;;11.93;57.07;95897.31;4965680;28;20538;-67
2023/04/02 09:22:05;;;;;;;7.80;3.50;;;;;;;12.11;56.30;95891.94;4965290;28;20429;-67
2023/04/02 09:24:30;;;;;;;5.07;2.90;;;;;;;12.01;56.15;95892.47;4960233;28;20451;-66
2023/04/02 09:26:56;;;;;;;9.80;3.80;;;;;;;12.02;56.63;95899.44;4966533;28;20445;-67
2023/04/02 09:29:55;;;;;;;9.23;3.30;;;;;;;12.16;55.45;95898.59;4967231;28;20236;-67
2023/04/02 09:32:39;;;;;;;10.97;3.67;;;;;;;12.29;54.89;95904.84;4966841;28;20205;-67
2023/04/02 09:35:14;;;;;;;9.60;3.40;;;;;;;12.45;54.79;95902.19;4971700;28;20436;-68
2023/04/02 09:37:42;;;;;;;4.50;2.67;;;;;;;12.48;54.53;95907.25;4971058;28;20487;-67
2023/04/02 09:40:15;;;;;;;4.53;2.60;;;;;;;12.45;54.00;95901.34;4965447;28;1168540;-66
2023/04/02 09:42:41;;;;;;;3.60;2.97;;;;;;;12.60;54.22;95912.72;4970149;28;20413;-68
2023/04/02 09:45:25;;;;;;;3.50;2.37;;;;;;;12.73;53.83;95908.41;4970538;28;20413;-66
2023/04/02 09:47:52;;;;;;;4.20;2.90;;;;;;;12.98;52.33;95914.81;4969529;28;20225;-67
2023/04/02 09:50:20;;;;;;;2.27;2.07;;;;;;;13.36;51.71;95909.84;4967903;28;20450;-68
2023/04/02 09:52:47;;;;;;;3.40;2.57;;;;;;;13.51;51.53;95902.75;4965182;28;20465;-66
2023/04/02 09:55:21;;;;;;;7.33;2.70;;;;;;;13.52;51.01;95910.56;4966123;28;20433;-68
2023/04/02 09:57:49;;;;;;;3.13;2.83;;;;;;;13.27;51.83;95913.88;4963830;28;20558;-67
2023/04/02 10:00:17;;;;;;;3.43;2.37;;;;;;;13.50;52.21;95912.44;4961430;28;20437;-68
2023/04/02 10:02:45;;;;;;;3.40;2.53;;;;;;;13.44;51.46;95919.91;4967351;28;20432;-67
2023/04/02 10:05:22;;;;;;;5.17;2.77;;;;;;;13.34;51.74;95919.63;4964855;28;20814;-67
2023/04/02 10:07:52;;;;;;;4.13;2.97;;;;;;;13.39;51.39;95919.34;4963572;28;20452;-68
2023/04/02 10:10:33;;;;;;;5.40;2.50;;;;;;;13.34;51.54;95924.91;4963877;28;20539;-67
2023/04/02 10:12:59;;;;;;;14.93;4.50;;;;;;;13.33;50.76;95925.84;4964850;28;21018;-67
2023/04/02 10:15:47;;;;;;;17.30;3.13;;;;;;;13.36;51.50;95920.38;4960244;28;20532;-67
2023/04/02 10:18:12;;;;;;;18.83;3.27;;;;;;;13.14;51.84;95932.22;4959896;28;20275;-68
2023/04/02 10:20:41;;;;;;;4.13;2.80;;;;;;;13.06;52.53;95934.50;4963822;28;20526;-67
2023/04/02 10:23:15;;;;;;;5.63;2.20;;;;;;;13.01;52.78;95935.72;4962476;28;20207;-67
2023/04/02 10:25:50;;;;;;;3.20;2.30;;;;;;;12.92;52.47;95927.44;4967113;28;20472;-67
2023/04/02 10:28:59;;;;;;;7.77;2.60;;;;;;;12.85;52.53;95934.00;4967244;28;20888;-69
2023/04/02 10:31:36;;;;;;;37.07;4.80;;;;;;;12.83;52.36;95940.31;4965397;28;21459;-70
2023/04/02 10:34:11;;;;;;;22.43;4.30;;;;;;;12.88;52.02;95946.16;4954177;28;20433;-71
2023/04/02 10:36:53;;;;;;;10.37;2.73;;;;;;;12.96;52.05;95945.69;4962867;28;21127;-68
2023/04/02 10:39:38;;;;;;;3.43;2.33;;;;;;;13.08;52.00;95937.88;4963442;28;20976;-69
2023/04/02 10:42:20;;;;;;;3.50;2.63;;;;;;;13.19;52.31;95937.22;4966449;28;20432;-69
2023/04/02 10:44:58;;;;;;;3.80;2.50;;;;;;;13.19;51.83;95950.38;4967163;28;20480;-68
2023/04/02 10:47:37;;;;;;;2.73;2.40;;;;;;;13.11;52.24;95952.66;4953416;28;20578;-69
2023/04/02 10:50:11;;;;;;;2.83;2.50;;;;;;;12.88;52.32;95951.41;4979148;28;20333;-68
2023/04/02 10:52:51;;;;;;;15.90;4.60;;;;;;;12.85;52.62;95956.84;4958126;28;20209;-66
2023/04/02 10:55:21;;;;;;;22.50;3.40;;;;;;;12.63;52.92;95959.91;4980381;28;20440;-66
2023/04/02 10:57:46;;;;;;;2.53;1.03;;;;;;;12.03;55.01;95966.84;4957772;28;20499;-67
2023/04/02 11:00:15;;;;;;;3.57;1.53;;;;;;;12.17;56.06;95967.88;4962323;28;20850;-68
2023/04/02 11:02:45;;;;;;;1.73;1.23;;;;;;;11.99;56.62;95967.13;4965611;28;20205;-67
2023/04/02 11:05:28;;;;;;;5.10;1.80;;;;;;;11.93;57.70;95968.31;4977760;28;21051;-67
2023/04/02 11:08:06;;;;;;;6.83;1.60;;;;;;;11.68;57.58;95973.22;4982845;28;20490;-65
2023/04/02 11:10:37;;;;;;;4.37;1.40;;;;;;;11.88;58.67;95975.59;4977209;28;20428;-66
2023/04/02 11:13:13;;;;;;;3.73;1.20;;;;;;;11.88;58.56;95972.97;4983637;28;20494;-67
2023/04/02 11:15:38;;;;;;;2.80;1.83;;;;;;;11.83;57.90;95977.59;4984074;28;20539;-69
2023/04/02 11:18:04;;;;;;;4.07;1.50;;;;;;;11.84;58.07;95974.06;4984173;28;20534;-67
2023/04/02 11:20:53;;;;;;;6.00;1.33;;;;;;;11.79;58.20;95982.19;4983115;28;20191;-66
2023/04/02 11:23:20;;;;;;;11.57;2.00;;;;;;;11.66;58.79;95979.38;4978980;28;20665;-66
2023/04/02 11:25:46;;;;;;;2.40;1.37;;;;;;;11.87;58.07;95987.06;4983712;28;20432;-66
2023/04/02 11:28:29;;;;;;;3.03;1.47;;;;;;;11.82;58.34;95984.66;4970549;28;20467;-66
2023/04/02 11:30:56;;;;;;;2.80;1.30;;;;;;;11.46;59.34;95990.16;4971148;28;20436;-65
2023/04/02 11:33:32;;;;;;;8.20;1.60;;;;;;;11.65;59.52;95990.00;4978875;28;21105;-67
2023/04/02 11:35:57;;;;;;;11.07;2.47;;;;;;;11.66;59.70;95992.53;4974216;28;20480;-67
2023/04/02 11:38:23;;;;;;;18.10;2.70;;;;;;;11.84;59.60;96003.81;4963569;28;20467;-68
2023/04/02 11:40:57;;;;;;;8.33;2.00;;;;;;;11.89;60.59;96000.97;4963350;28;20178;-65
2023/04/02 11:43:31;;;;;;;10.07;2.00;;;;;;;11.99;60.81;96007.41;4958628;28;20188;-66
2023/04/02 11:46:01;;;;;;;39.83;7.43;;;;;;;11.94;60.91;96005.97;4963082;28;20440;-66
2023/04/02 11:48:39;;;;;;;12.07;2.67;;;;;;;11.99;61.56;96012.66;4959794;28;21169;-66
2023/04/02 11:51:31;;;;;;;6.40;2.00;;;;;;;12.02;60.96;96009.00;4960740;28;20442;-67
2023/04/02 11:53:57;;;;;;;3.90;2.10;;;;;;;12.12;61.94;96010.22;4959303;28;20448;-66
2023/04/02 11:56:28;;;;;;;4.93;1.80;;;;;;;12.18;60.63;96011.63;4962136;28;20440;-67
2023/04/02 11:58:57;;;;;;;72.30;7.10;;;;;;;12.19;60.68;96014.19;4962941;28;20475;-69
2023/04/02 12:01:53;;;;;;;69.20;9.43;;;;;;;12.26;61.21;96014.69;4963990;28;20797;-67
2023/04/02 12:04:34;;;;;;;45.53;7.00;;;;;;;12.18;61.32;96016.91;4955833;28;20672;-66
2023/04/02 12:07:11;;;;;;;1.67;1.23;;;;;;;12.44;57.32;96020.69;4959123;28;20440;-69
2023/04/02 12:09:52;;;;;;;2.10;1.30;;;;;;;11.85;58.03;96023.06;4960143;28;20444;-68